createdAt,value
2019-02-10T00:00:21.392Z,1001.52
2019-02-10T00:01:25.647Z,1001.54
2019-02-10T00:02:29.907Z,1001.57
2019-02-10T00:03:34.152Z,1001.58
2019-02-10T00:04:38.395Z,1001.54
2019-02-10T00:05:42.632Z,1001.55
2019-02-10T00:06:46.808Z,1001.54
2019-02-10T00:07:51.079Z,1001.55
2019-02-10T00:08:56.956Z,1001.54
2019-02-10T00:09:59.479Z,1001.52
2019-02-10T00:11:03.754Z,1001.55
2019-02-10T00:12:07.994Z,1001.57
2019-02-10T00:13:12.213Z,1001.54
2019-02-10T00:14:16.462Z,1001.58
2019-02-10T00:15:20.649Z,1001.59
2019-02-10T00:16:24.954Z,1001.56
2019-02-10T00:17:29.081Z,1001.60
2019-02-10T00:18:33.373Z,1001.59
2019-02-10T00:19:37.606Z,1001.55
2019-02-10T00:20:41.824Z,1001.55
2019-02-10T00:21:46.069Z,1001.59
2019-02-10T00:22:50.259Z,1001.54
2019-02-10T00:23:54.514Z,1001.57
2019-02-10T00:24:58.746Z,1001.54
2019-02-10T00:26:02.983Z,1001.57
2019-02-10T00:27:07.238Z,1001.57
2019-02-10T00:28:11.473Z,1001.57
2019-02-10T00:29:15.716Z,1001.58
2019-02-10T00:30:19.893Z,1001.56
2019-02-10T00:31:24.115Z,1001.59
2019-02-10T00:32:28.416Z,1001.58
2019-02-10T00:33:32.621Z,1001.59
2019-02-10T00:34:36.845Z,1001.55
2019-02-10T00:35:41.129Z,1001.58
2019-02-10T00:36:45.270Z,1001.60
2019-02-10T00:37:49.526Z,1001.59
2019-02-10T00:38:53.707Z,1001.59
2019-02-10T00:39:57.953Z,1001.59
2019-02-10T00:41:02.090Z,1001.58
2019-02-10T00:42:06.407Z,1001.65
2019-02-10T00:43:10.623Z,1001.67
2019-02-10T00:44:14.782Z,1001.70
2019-02-10T00:45:18.943Z,1001.69
2019-02-10T00:46:23.151Z,1001.69
2019-02-10T00:47:27.348Z,1001.72
2019-02-10T00:48:31.538Z,1001.76
2019-02-10T00:49:35.838Z,1001.78
2019-02-10T00:50:40.066Z,1001.77
2019-02-10T00:51:44.287Z,1001.79
2019-02-10T00:52:48.490Z,1001.79
2019-02-10T00:53:52.716Z,1001.80
2019-02-10T00:54:56.834Z,1001.79
2019-02-10T00:56:01.159Z,1001.82
2019-02-10T00:57:05.189Z,1001.78
2019-02-10T00:58:09.426Z,1001.79
2019-02-10T00:59:13.608Z,1001.77
2019-02-10T01:00:17.883Z,1001.77
2019-02-10T01:01:22.114Z,1001.79
2019-02-10T01:02:26.233Z,1001.78
2019-02-10T01:03:30.403Z,1001.78
2019-02-10T01:04:34.599Z,1001.78
2019-02-10T01:05:38.887Z,1001.79
2019-02-10T01:06:43.098Z,1001.80
2019-02-10T01:07:47.355Z,1001.81
2019-02-10T01:08:51.543Z,1001.82
2019-02-10T01:09:55.703Z,1001.82
2019-02-10T01:10:59.975Z,1001.84
2019-02-10T01:12:04.099Z,1001.82
2019-02-10T01:13:08.364Z,1001.83
2019-02-10T01:14:12.565Z,1001.88
2019-02-10T01:15:16.801Z,1001.88
2019-02-10T01:16:21.033Z,1001.86
2019-02-10T01:17:25.256Z,1001.88
2019-02-10T01:18:29.469Z,1001.87
2019-02-10T01:19:33.588Z,1001.86
2019-02-10T01:20:37.842Z,1001.84
2019-02-10T01:21:42.016Z,1001.82
2019-02-10T01:22:46.253Z,1001.82
2019-02-10T01:23:50.482Z,1001.80
2019-02-10T01:24:54.706Z,1001.79
2019-02-10T01:25:58.968Z,1001.81
2019-02-10T01:27:03.179Z,1001.84
2019-02-10T01:28:07.419Z,1001.81
2019-02-10T01:29:11.516Z,1001.80
2019-02-10T01:30:15.768Z,1001.79
2019-02-10T01:31:19.999Z,1001.79
2019-02-10T01:32:24.252Z,1001.74
2019-02-10T01:33:28.446Z,1001.79
2019-02-10T01:34:32.562Z,1001.74
2019-02-10T01:35:36.739Z,1001.73
2019-02-10T01:36:40.930Z,1001.75
2019-02-10T01:37:45.069Z,1001.78
2019-02-10T01:38:49.357Z,1001.77
2019-02-10T01:39:54.345Z,1001.78
2019-02-10T01:40:57.802Z,1001.76
2019-02-10T01:42:01.974Z,1001.75
2019-02-10T01:43:06.250Z,1001.72
2019-02-10T01:44:10.439Z,1001.68
2019-02-10T01:45:14.666Z,1001.68
2019-02-10T01:46:18.908Z,1001.67
2019-02-10T01:47:23.124Z,1001.63
2019-02-10T01:48:27.518Z,1001.65
2019-02-10T01:49:31.516Z,1001.63
2019-02-10T01:50:35.741Z,1001.66
2019-02-10T01:51:39.876Z,1001.70
2019-02-10T01:52:44.031Z,1001.68
2019-02-10T01:53:48.188Z,1001.69
2019-02-10T01:54:52.454Z,1001.66
2019-02-10T01:55:56.692Z,1001.66
2019-02-10T01:57:00.915Z,1001.65
2019-02-10T01:58:05.036Z,1001.63
2019-02-10T01:59:09.304Z,1001.64
2019-02-10T02:00:13.535Z,1001.61
2019-02-10T02:01:17.742Z,1001.56
2019-02-10T02:02:21.894Z,1001.54
2019-02-10T02:03:26.152Z,1001.54
2019-02-10T02:04:30.363Z,1001.51
2019-02-10T02:05:34.602Z,1001.48
2019-02-10T02:06:38.729Z,1001.52
2019-02-10T02:07:42.928Z,1001.58
2019-02-10T02:08:47.203Z,1001.60
2019-02-10T02:09:51.352Z,1001.57
2019-02-10T02:10:55.524Z,1001.51
2019-02-10T02:11:59.822Z,1001.45
2019-02-10T02:13:03.936Z,1001.43
2019-02-10T02:14:08.253Z,1001.42
2019-02-10T02:15:12.415Z,1001.41
2019-02-10T02:16:16.551Z,1001.43
2019-02-10T02:17:20.853Z,1001.41
2019-02-10T02:18:25.074Z,1001.41
2019-02-10T02:19:29.237Z,1001.41
2019-02-10T02:20:33.381Z,1001.37
2019-02-10T02:21:37.630Z,1001.38
2019-02-10T02:22:41.924Z,1001.33
2019-02-10T02:23:46.088Z,1001.30
2019-02-10T02:24:50.275Z,1001.31
2019-02-10T02:25:54.485Z,1001.27
2019-02-10T02:26:58.639Z,1001.26
2019-02-10T02:28:02.880Z,1001.23
2019-02-10T02:29:07.000Z,1001.21
2019-02-10T02:30:11.317Z,1001.24
2019-02-10T02:31:15.515Z,1001.23
2019-02-10T02:32:19.641Z,1001.25
2019-02-10T02:33:23.938Z,1001.22
2019-02-10T02:34:28.110Z,1001.21
2019-02-10T02:35:32.248Z,1001.17
2019-02-10T02:36:36.500Z,1001.17
2019-02-10T02:37:40.913Z,1001.17
2019-02-10T02:38:45.014Z,1001.18
2019-02-10T02:39:49.156Z,1001.16
2019-02-10T02:40:53.462Z,1001.16
2019-02-10T02:41:57.674Z,1001.12
2019-02-10T02:43:01.931Z,1001.13
2019-02-10T02:44:06.142Z,1001.12
2019-02-10T02:45:10.257Z,1001.13
2019-02-10T02:46:14.443Z,1001.10
2019-02-10T02:47:18.764Z,1001.12
2019-02-10T02:48:22.891Z,1001.10
2019-02-10T02:49:27.180Z,1001.13
2019-02-10T02:50:31.316Z,1001.14
2019-02-10T02:51:35.555Z,1001.14
2019-02-10T02:52:39.752Z,1001.11
2019-02-10T02:53:43.965Z,1001.12
2019-02-10T02:54:48.035Z,1001.17
2019-02-10T02:55:52.300Z,1001.18
2019-02-10T02:56:59.553Z,1001.15
2019-02-10T02:58:02.830Z,1001.18
2019-02-10T02:59:07.050Z,1001.16
2019-02-10T03:00:11.293Z,1001.17
2019-02-10T03:01:15.491Z,1001.15
2019-02-10T03:02:19.704Z,1001.13
2019-02-10T03:03:23.827Z,1001.12
2019-02-10T03:04:28.119Z,1001.14
2019-02-10T03:05:32.328Z,1001.11
2019-02-10T03:06:36.557Z,1001.07
2019-02-10T03:07:40.719Z,1001.08
2019-02-10T03:08:44.916Z,1001.04
2019-02-10T03:09:49.156Z,1001.04
2019-02-10T03:10:53.389Z,1001.03
2019-02-10T03:11:57.645Z,1000.99
2019-02-10T03:13:01.773Z,1001.01
2019-02-10T03:14:06.090Z,1001.01
2019-02-10T03:15:10.224Z,1001.03
2019-02-10T03:16:14.519Z,1001.00
2019-02-10T03:17:18.682Z,1001.02
2019-02-10T03:18:22.904Z,1000.99
2019-02-10T03:19:27.081Z,1000.98
2019-02-10T03:20:31.232Z,1000.99
2019-02-10T03:21:35.350Z,1000.95
2019-02-10T03:22:39.654Z,1000.97
2019-02-10T03:23:43.845Z,1000.96
2019-02-10T03:24:48.094Z,1000.95
2019-02-10T03:25:52.286Z,1000.95
2019-02-10T03:26:56.547Z,1000.96
2019-02-10T03:28:00.826Z,1000.91
2019-02-10T03:29:05.021Z,1000.90
2019-02-10T03:30:09.165Z,1000.86
2019-02-10T03:31:13.425Z,1000.87
2019-02-10T03:32:17.651Z,1000.88
2019-02-10T03:33:21.757Z,1000.91
2019-02-10T03:34:26.044Z,1000.95
2019-02-10T03:35:30.241Z,1000.92
2019-02-10T03:36:34.450Z,1000.88
2019-02-10T03:37:38.648Z,1000.85
2019-02-10T03:38:42.862Z,1000.85
2019-02-10T03:39:48.008Z,1000.82
2019-02-10T03:40:51.724Z,1000.80
2019-02-10T03:41:55.976Z,1000.81
2019-02-10T03:43:00.098Z,1000.76
2019-02-10T03:44:04.285Z,1000.82
2019-02-10T03:45:08.587Z,1000.85
2019-02-10T03:46:12.624Z,1000.87
2019-02-10T03:47:16.936Z,1000.90
2019-02-10T03:48:21.184Z,1000.89
2019-02-10T03:49:25.385Z,1000.90
2019-02-10T03:50:29.654Z,1000.89
2019-02-10T03:51:33.888Z,1000.86
2019-02-10T03:52:38.056Z,1000.81
2019-02-10T03:53:42.184Z,1000.83
2019-02-10T03:54:46.492Z,1000.77
2019-02-10T03:55:50.719Z,1000.76
2019-02-10T03:56:54.869Z,1000.76
2019-02-10T03:57:59.016Z,1000.75
2019-02-10T03:59:03.244Z,1000.71
2019-02-10T04:00:07.517Z,1000.71
2019-02-10T04:01:11.710Z,1000.69
2019-02-10T04:02:15.941Z,1000.68
2019-02-10T04:03:20.152Z,1000.63
2019-02-10T04:04:24.391Z,1000.63
2019-02-10T04:05:28.566Z,1000.61
2019-02-10T04:06:32.806Z,1000.59
2019-02-10T04:07:36.964Z,1000.63
2019-02-10T04:08:41.250Z,1000.56
2019-02-10T04:09:45.477Z,1000.57
2019-02-10T04:10:49.756Z,1000.57
2019-02-10T04:11:53.953Z,1000.56
2019-02-10T04:12:58.048Z,1000.55
2019-02-10T04:14:03.242Z,1000.52
2019-02-10T04:15:06.998Z,1000.56
2019-02-10T04:16:11.281Z,1000.53
2019-02-10T04:17:15.393Z,1000.54
2019-02-10T04:18:19.621Z,1000.49
2019-02-10T04:19:23.873Z,1000.45
2019-02-10T04:20:28.067Z,1000.51
2019-02-10T04:21:35.325Z,1000.43
2019-02-10T04:22:38.496Z,1000.43
2019-02-10T04:23:42.737Z,1000.41
2019-02-10T04:24:46.926Z,1000.38
2019-02-10T04:25:51.094Z,1000.37
2019-02-10T04:26:55.329Z,1000.36
2019-02-10T04:27:59.417Z,1000.38
2019-02-10T04:29:03.682Z,1000.38
2019-02-10T04:30:09.172Z,1000.33
2019-02-10T04:31:12.120Z,1000.36
2019-02-10T04:32:16.311Z,1000.34
2019-02-10T04:33:20.474Z,1000.32
2019-02-10T04:34:27.725Z,1000.35
2019-02-10T04:35:30.988Z,1000.35
2019-02-10T04:36:35.227Z,1000.32
2019-02-10T04:37:45.710Z,1000.31
2019-02-10T04:38:43.624Z,1000.27
2019-02-10T04:39:47.724Z,1000.23
2019-02-10T04:40:51.990Z,1000.20
2019-02-10T04:41:56.251Z,1000.17
2019-02-10T04:43:00.454Z,1000.17
2019-02-10T04:44:04.503Z,1000.19
2019-02-10T04:45:08.811Z,1000.16
2019-02-10T04:46:13.044Z,1000.15
2019-02-10T04:47:17.278Z,1000.12
2019-02-10T04:48:21.372Z,1000.07
2019-02-10T04:49:25.636Z,1000.08
2019-02-10T04:50:29.855Z,1000.07
2019-02-10T04:51:33.986Z,1000.03
2019-02-10T04:52:38.292Z,999.98
2019-02-10T04:53:42.412Z,999.97
2019-02-10T04:54:46.670Z,999.97
2019-02-10T04:55:50.824Z,999.94
2019-02-10T04:56:55.169Z,999.95
2019-02-10T04:57:59.390Z,999.95
2019-02-10T04:59:03.580Z,999.89
2019-02-10T05:00:07.795Z,999.89
2019-02-10T05:01:11.999Z,999.88
2019-02-10T05:02:16.194Z,999.87
2019-02-10T05:03:20.371Z,999.81
2019-02-10T05:04:24.550Z,999.83
2019-02-10T05:05:28.624Z,999.83
2019-02-10T05:06:32.892Z,999.83
2019-02-10T05:07:37.134Z,999.82
2019-02-10T05:08:41.321Z,999.81
2019-02-10T05:09:45.500Z,999.81
2019-02-10T05:10:49.712Z,999.79
2019-02-10T05:11:53.971Z,999.80
2019-02-10T05:12:58.197Z,999.81
2019-02-10T05:14:02.433Z,999.78
2019-02-10T05:15:06.654Z,999.80
2019-02-10T05:16:10.873Z,999.78
2019-02-10T05:17:15.072Z,999.76
2019-02-10T05:18:19.299Z,999.78
2019-02-10T05:19:23.549Z,999.75
2019-02-10T05:20:27.741Z,999.76
2019-02-10T05:21:31.960Z,999.76
2019-02-10T05:22:39.469Z,999.76
2019-02-10T05:23:42.390Z,999.77
2019-02-10T05:24:46.593Z,999.77
2019-02-10T05:25:50.784Z,999.74
2019-02-10T05:26:54.887Z,999.75
2019-02-10T05:27:59.174Z,999.71
2019-02-10T05:29:03.368Z,999.67
2019-02-10T05:30:07.586Z,999.67
2019-02-10T05:31:11.800Z,999.66
2019-02-10T05:32:16.037Z,999.64
2019-02-10T05:33:20.112Z,999.61
2019-02-10T05:34:24.386Z,999.61
2019-02-10T05:35:28.621Z,999.60
2019-02-10T05:36:32.693Z,999.57
2019-02-10T05:37:37.286Z,999.53
2019-02-10T05:38:41.264Z,999.52
2019-02-10T05:39:45.519Z,999.51
2019-02-10T05:40:49.717Z,999.48
2019-02-10T05:41:53.895Z,999.48
2019-02-10T05:42:58.048Z,999.47
2019-02-10T05:44:02.290Z,999.45
2019-02-10T05:45:06.503Z,999.45
2019-02-10T05:46:10.754Z,999.43
2019-02-10T05:47:14.858Z,999.43
2019-02-10T05:48:19.139Z,999.39
2019-02-10T05:49:23.352Z,999.40
2019-02-10T05:50:27.458Z,999.37
2019-02-10T05:51:31.644Z,999.33
2019-02-10T05:52:35.890Z,999.30
2019-02-10T05:53:40.145Z,999.29
2019-02-10T05:54:44.362Z,999.24
2019-02-10T05:55:48.448Z,999.17
2019-02-10T05:56:52.667Z,999.17
2019-02-10T05:57:56.930Z,999.16
2019-02-10T05:59:01.031Z,999.16
2019-02-10T06:00:05.194Z,999.17
2019-02-10T06:01:09.446Z,999.16
2019-02-10T06:02:13.677Z,999.16
2019-02-10T06:03:17.861Z,999.15
2019-02-10T06:04:22.051Z,999.09
2019-02-10T06:05:26.145Z,999.10
2019-02-10T06:06:30.311Z,999.06
2019-02-10T06:07:34.589Z,999.02
2019-02-10T06:08:38.712Z,999.01
2019-02-10T06:09:42.997Z,999.03
2019-02-10T06:10:47.196Z,999.02
2019-02-10T06:11:51.276Z,998.98
2019-02-10T06:12:55.442Z,998.99
2019-02-10T06:13:59.581Z,998.97
2019-02-10T06:15:03.853Z,998.93
2019-02-10T06:16:08.104Z,998.96
2019-02-10T06:17:12.284Z,998.91
2019-02-10T06:18:16.425Z,998.91
2019-02-10T06:19:20.666Z,998.89
2019-02-10T06:20:24.906Z,998.87
2019-02-10T06:21:29.043Z,998.84
2019-02-10T06:22:33.224Z,998.83
2019-02-10T06:23:37.501Z,998.85
2019-02-10T06:24:41.625Z,998.83
2019-02-10T06:25:45.797Z,998.82
2019-02-10T06:26:49.977Z,998.81
2019-02-10T06:27:54.234Z,998.78
2019-02-10T06:28:58.380Z,998.75
2019-02-10T06:30:02.561Z,998.71
2019-02-10T06:31:06.724Z,998.72
2019-02-10T06:32:10.986Z,998.70
2019-02-10T06:33:15.068Z,998.71
2019-02-10T06:34:19.358Z,998.68
2019-02-10T06:35:23.591Z,998.64
2019-02-10T06:36:27.693Z,998.63
2019-02-10T06:37:31.943Z,998.63
2019-02-10T06:38:36.122Z,998.61
2019-02-10T06:39:40.339Z,998.61
2019-02-10T06:40:44.531Z,998.57
2019-02-10T06:41:48.731Z,998.60
2019-02-10T06:42:52.871Z,998.60
2019-02-10T06:43:57.052Z,998.58
2019-02-10T06:45:01.343Z,998.56
2019-02-10T06:46:05.661Z,998.58
2019-02-10T06:47:09.814Z,998.55
2019-02-10T06:48:14.003Z,998.55
2019-02-10T06:49:18.228Z,998.55
2019-02-10T06:50:22.463Z,998.50
2019-02-10T06:51:26.651Z,998.49
2019-02-10T06:52:30.883Z,998.49
2019-02-10T06:53:35.095Z,998.47
2019-02-10T06:54:39.255Z,998.48
2019-02-10T06:55:43.472Z,998.46
2019-02-10T06:56:47.689Z,998.47
2019-02-10T06:57:51.909Z,998.50
2019-02-10T06:58:56.110Z,998.48
2019-02-10T07:00:00.271Z,998.44
2019-02-10T07:01:04.515Z,998.45
2019-02-10T07:02:08.656Z,998.43
2019-02-10T07:03:12.952Z,998.42
2019-02-10T07:04:17.208Z,998.38
2019-02-10T07:05:21.290Z,998.37
2019-02-10T07:06:25.524Z,998.34
2019-02-10T07:07:29.760Z,998.33
2019-02-10T07:08:34.012Z,998.30
2019-02-10T07:09:38.181Z,998.30
2019-02-10T07:10:42.458Z,998.31
2019-02-10T07:11:46.566Z,998.24
2019-02-10T07:12:50.859Z,998.27
2019-02-10T07:13:55.066Z,998.21
2019-02-10T07:14:59.170Z,998.20
2019-02-10T07:16:03.355Z,998.20
2019-02-10T07:17:07.542Z,998.16
2019-02-10T07:18:11.786Z,998.12
2019-02-10T07:19:15.969Z,998.12
2019-02-10T07:20:20.230Z,998.09
2019-02-10T07:21:24.456Z,998.10
2019-02-10T07:22:28.742Z,998.06
2019-02-10T07:23:32.903Z,998.03
2019-02-10T07:24:37.044Z,998.08
2019-02-10T07:25:41.311Z,998.03
2019-02-10T07:26:45.422Z,997.99
2019-02-10T07:27:49.707Z,997.98
2019-02-10T07:28:53.801Z,997.93
2019-02-10T07:29:58.092Z,997.93
2019-02-10T07:31:02.302Z,997.89
2019-02-10T07:32:06.522Z,997.89
2019-02-10T07:33:10.766Z,997.82
2019-02-10T07:34:14.857Z,997.79
2019-02-10T07:35:19.141Z,997.74
2019-02-10T07:36:23.384Z,997.72
2019-02-10T07:37:27.598Z,997.75
2019-02-10T07:38:38.549Z,997.70
2019-02-10T07:39:36.058Z,997.71
2019-02-10T07:40:40.215Z,997.69
2019-02-10T07:41:44.506Z,997.67
2019-02-10T07:42:48.619Z,997.71
2019-02-10T07:43:52.814Z,997.73
2019-02-10T07:44:57.068Z,997.73
2019-02-10T07:46:01.195Z,997.71
2019-02-10T07:47:05.494Z,997.72
2019-02-10T07:48:09.740Z,997.69
2019-02-10T07:49:13.861Z,997.65
2019-02-10T07:50:18.013Z,997.62
2019-02-10T07:51:22.298Z,997.63
2019-02-10T07:52:26.497Z,997.58
2019-02-10T07:53:30.751Z,997.60
2019-02-10T07:54:42.162Z,997.56
2019-02-10T07:55:39.196Z,997.57
2019-02-10T07:56:43.374Z,997.50
2019-02-10T07:57:47.543Z,997.51
2019-02-10T07:58:51.799Z,997.47
2019-02-10T07:59:56.020Z,997.49
2019-02-10T08:01:00.153Z,997.42
2019-02-10T08:02:04.437Z,997.41
2019-02-10T08:03:08.640Z,997.42
2019-02-10T08:04:12.845Z,997.41
2019-02-10T08:05:17.096Z,997.38
2019-02-10T08:06:21.220Z,997.37
2019-02-10T08:07:25.425Z,997.36
2019-02-10T08:08:29.677Z,997.34
2019-02-10T08:09:33.818Z,997.35
2019-02-10T08:10:38.054Z,997.30
2019-02-10T08:11:42.200Z,997.28
2019-02-10T08:12:46.462Z,997.29
2019-02-10T08:13:50.551Z,997.24
2019-02-10T08:14:54.715Z,997.22
2019-02-10T08:15:58.991Z,997.23
2019-02-10T08:17:03.173Z,997.19
2019-02-10T08:18:07.357Z,997.17
2019-02-10T08:19:11.588Z,997.15
2019-02-10T08:20:15.788Z,997.13
2019-02-10T08:21:20.024Z,997.10
2019-02-10T08:22:24.285Z,997.07
2019-02-10T08:23:28.516Z,997.04
2019-02-10T08:24:32.655Z,997.06
2019-02-10T08:25:36.916Z,997.02
2019-02-10T08:26:41.116Z,997.00
2019-02-10T08:27:45.293Z,996.98
2019-02-10T08:28:49.522Z,996.98
2019-02-10T08:29:53.764Z,996.95
2019-02-10T08:30:57.992Z,996.92
2019-02-10T08:32:02.203Z,996.86
2019-02-10T08:33:06.421Z,996.82
2019-02-10T08:34:10.627Z,996.78
2019-02-10T08:35:14.871Z,996.76
2019-02-10T08:36:19.064Z,996.74
2019-02-10T08:37:23.226Z,996.68
2019-02-10T08:38:27.394Z,996.60
2019-02-10T08:39:31.650Z,996.53
2019-02-10T08:40:35.833Z,996.52
2019-02-10T08:41:40.121Z,996.49
2019-02-10T08:42:44.154Z,996.44
2019-02-10T08:43:48.446Z,996.39
2019-02-10T08:44:52.558Z,996.41
2019-02-10T08:45:56.858Z,996.37
2019-02-10T08:47:01.072Z,996.35
2019-02-10T08:48:05.199Z,996.32
2019-02-10T08:49:09.496Z,996.30
2019-02-10T08:50:13.621Z,996.28
2019-02-10T08:51:17.906Z,996.25
2019-02-10T08:52:22.160Z,996.19
2019-02-10T08:53:26.415Z,996.18
2019-02-10T08:54:30.537Z,996.15
2019-02-10T08:55:34.818Z,996.10
2019-02-10T08:56:39.061Z,996.08
2019-02-10T08:57:43.292Z,996.09
2019-02-10T08:58:47.477Z,996.02
2019-02-10T08:59:51.609Z,995.98
2019-02-10T09:00:55.890Z,995.98
2019-02-10T09:01:59.986Z,995.95
2019-02-10T09:03:04.228Z,995.93
2019-02-10T09:04:08.502Z,995.94
2019-02-10T09:05:12.711Z,995.90
2019-02-10T09:06:16.947Z,995.87
2019-02-10T09:07:21.049Z,995.87
2019-02-10T09:08:25.360Z,995.86
2019-02-10T09:09:29.575Z,995.82
2019-02-10T09:10:33.746Z,995.86
2019-02-10T09:11:37.954Z,995.86
2019-02-10T09:12:42.199Z,995.83
2019-02-10T09:13:46.419Z,995.80
2019-02-10T09:14:50.639Z,995.79
2019-02-10T09:15:54.785Z,995.78
2019-02-10T09:16:58.924Z,995.76
2019-02-10T09:18:03.127Z,995.74
2019-02-10T09:19:07.399Z,995.72
2019-02-10T09:20:11.632Z,995.71
2019-02-10T09:21:15.790Z,995.60
2019-02-10T09:22:20.012Z,995.56
2019-02-10T09:23:24.182Z,995.52
2019-02-10T09:24:28.429Z,995.50
2019-02-10T09:25:32.628Z,995.42
2019-02-10T09:26:36.787Z,995.40
2019-02-10T09:27:41.059Z,995.32
2019-02-10T09:28:45.339Z,995.29
2019-02-10T09:29:49.546Z,995.30
2019-02-10T09:30:53.767Z,995.32
2019-02-10T09:31:57.875Z,995.28
2019-02-10T09:33:02.142Z,995.26
2019-02-10T09:34:06.305Z,995.24
2019-02-10T09:35:10.585Z,995.18
2019-02-10T09:36:14.638Z,995.12
2019-02-10T09:37:18.928Z,995.09
2019-02-10T09:38:23.139Z,995.03
2019-02-10T09:39:27.277Z,994.99
2019-02-10T09:40:31.520Z,994.96
2019-02-10T09:41:35.700Z,994.91
2019-02-10T09:42:39.825Z,994.91
2019-02-10T09:43:44.069Z,994.90
2019-02-10T09:44:48.325Z,994.84
2019-02-10T09:45:52.535Z,994.85
2019-02-10T09:46:56.736Z,994.86
2019-02-10T09:48:00.985Z,994.83
2019-02-10T09:49:05.129Z,994.81
2019-02-10T09:50:11.206Z,994.74
2019-02-10T09:51:14.402Z,994.68
2019-02-10T09:52:18.162Z,994.66
2019-02-10T09:53:22.436Z,994.61
2019-02-10T09:54:26.573Z,994.57
2019-02-10T09:55:30.668Z,994.52
2019-02-10T09:56:34.992Z,994.52
2019-02-10T09:57:39.204Z,994.47
2019-02-10T09:58:43.410Z,994.43
2019-02-10T09:59:47.585Z,994.39
2019-02-10T10:00:51.758Z,994.36
2019-02-10T10:01:56.031Z,994.33
2019-02-10T10:03:00.237Z,994.31
2019-02-10T10:04:04.455Z,994.29
2019-02-10T10:05:08.696Z,994.26
2019-02-10T10:06:12.921Z,994.18
2019-02-10T10:07:17.151Z,994.14
2019-02-10T10:08:21.267Z,994.08
2019-02-10T10:09:25.501Z,994.08
2019-02-10T10:10:29.680Z,993.99
2019-02-10T10:11:33.904Z,994.00
2019-02-10T10:12:38.130Z,993.92
2019-02-10T10:13:42.364Z,993.85
2019-02-10T10:14:46.557Z,993.78
2019-02-10T10:15:50.696Z,993.76
2019-02-10T10:16:54.862Z,993.73
2019-02-10T10:17:59.026Z,993.67
2019-02-10T10:19:03.186Z,993.63
2019-02-10T10:20:07.515Z,993.64
2019-02-10T10:21:11.618Z,993.62
2019-02-10T10:22:15.880Z,993.59
2019-02-10T10:23:20.107Z,993.53
2019-02-10T10:24:24.238Z,993.48
2019-02-10T10:25:28.522Z,993.50
2019-02-10T10:26:32.645Z,993.45
2019-02-10T10:27:36.828Z,993.37
2019-02-10T10:28:41.002Z,993.36
2019-02-10T10:29:45.276Z,993.35
2019-02-10T10:30:49.539Z,993.36
2019-02-10T10:31:53.665Z,993.30
2019-02-10T10:32:57.823Z,993.23
2019-02-10T10:34:02.083Z,993.20
2019-02-10T10:35:06.277Z,993.20
2019-02-10T10:36:10.530Z,993.13
2019-02-10T10:37:14.749Z,993.11
2019-02-10T10:38:18.945Z,993.04
2019-02-10T10:39:27.427Z,993.02
2019-02-10T10:40:27.365Z,993.02
2019-02-10T10:41:31.495Z,992.98
2019-02-10T10:42:35.748Z,992.93
2019-02-10T10:43:39.875Z,992.89
2019-02-10T10:44:44.102Z,992.83
2019-02-10T10:45:48.173Z,992.75
2019-02-10T10:46:52.369Z,992.69
2019-02-10T10:47:56.542Z,992.65
2019-02-10T10:49:00.807Z,992.58
2019-02-10T10:50:05.054Z,992.57
2019-02-10T10:51:09.270Z,992.53
2019-02-10T10:52:13.478Z,992.51
2019-02-10T10:53:17.644Z,992.47
2019-02-10T10:54:21.817Z,992.42
2019-02-10T10:55:26.126Z,992.42
2019-02-10T10:56:30.380Z,992.32
2019-02-10T10:57:34.604Z,992.30
2019-02-10T10:58:38.758Z,992.27
2019-02-10T10:59:42.994Z,992.23
2019-02-10T11:00:47.231Z,992.19
2019-02-10T11:01:51.390Z,992.15
2019-02-10T11:02:55.616Z,992.10
2019-02-10T11:03:59.754Z,992.07
2019-02-10T11:05:03.995Z,992.03
2019-02-10T11:06:08.181Z,992.01
2019-02-10T11:07:12.280Z,991.97
2019-02-10T11:08:16.568Z,991.91
2019-02-10T11:09:20.684Z,991.85
2019-02-10T11:10:25.013Z,991.83
2019-02-10T11:11:29.195Z,991.80
2019-02-10T11:12:33.322Z,991.81
2019-02-10T11:13:37.599Z,991.80
2019-02-10T11:14:41.800Z,991.81
2019-02-10T11:15:46.826Z,991.79
2019-02-10T11:16:50.764Z,991.72
2019-02-10T11:17:54.953Z,991.64
2019-02-10T11:18:59.079Z,991.58
2019-02-10T11:20:03.243Z,991.49
2019-02-10T11:21:07.378Z,991.42
2019-02-10T11:22:11.622Z,991.40
2019-02-10T11:23:15.772Z,991.40
2019-02-10T11:24:20.069Z,991.40
2019-02-10T11:25:24.206Z,991.42
2019-02-10T11:26:28.461Z,991.41
2019-02-10T11:27:32.670Z,991.37
2019-02-10T11:28:36.880Z,991.35
2019-02-10T11:29:41.003Z,991.28
2019-02-10T11:30:45.279Z,991.22
2019-02-10T11:31:49.469Z,991.16
2019-02-10T11:32:53.683Z,991.14
2019-02-10T11:33:57.822Z,991.08
2019-02-10T11:35:02.086Z,991.04
2019-02-10T11:36:06.340Z,991.04
2019-02-10T11:37:10.592Z,991.01
2019-02-10T11:38:14.782Z,990.96
2019-02-10T11:39:19.045Z,990.91
2019-02-10T11:40:23.242Z,990.84
2019-02-10T11:41:27.424Z,990.79
2019-02-10T11:42:31.551Z,990.70
2019-02-10T11:43:35.838Z,990.64
2019-02-10T11:44:39.977Z,990.59
2019-02-10T11:45:44.156Z,990.59
2019-02-10T11:46:48.447Z,990.59
2019-02-10T11:47:52.648Z,990.62
2019-02-10T11:48:56.854Z,990.62
2019-02-10T11:50:01.010Z,990.59
2019-02-10T11:51:05.293Z,990.49
2019-02-10T11:52:09.541Z,990.44
2019-02-10T11:53:13.661Z,990.40
2019-02-10T11:54:17.860Z,990.35
2019-02-10T11:55:22.165Z,990.35
2019-02-10T11:56:26.375Z,990.33
2019-02-10T11:57:30.523Z,990.26
2019-02-10T11:58:34.705Z,990.23
2019-02-10T11:59:39.764Z,990.13
2019-02-10T12:00:43.626Z,990.13
2019-02-10T12:01:47.778Z,990.08
2019-02-10T12:02:52.845Z,990.07
2019-02-10T12:03:56.700Z,990.07
2019-02-10T12:05:00.834Z,990.02
2019-02-10T12:06:05.099Z,989.97
2019-02-10T12:07:09.376Z,989.96
2019-02-10T12:08:13.538Z,989.90
2019-02-10T12:09:17.768Z,989.94
2019-02-10T12:10:21.885Z,989.88
2019-02-10T12:11:26.113Z,989.85
2019-02-10T12:12:30.406Z,989.83
2019-02-10T12:13:34.632Z,989.79
2019-02-10T12:14:38.763Z,989.80
2019-02-10T12:15:42.959Z,989.74
2019-02-10T12:16:47.212Z,989.67
2019-02-10T12:17:51.408Z,989.64
2019-02-10T12:18:56.406Z,989.60
2019-02-10T12:20:00.287Z,989.55
2019-02-10T12:21:04.359Z,989.48
2019-02-10T12:22:08.563Z,989.43
2019-02-10T12:23:12.731Z,989.36
2019-02-10T12:24:16.994Z,989.32
2019-02-10T12:25:21.219Z,989.31
2019-02-10T12:26:25.442Z,989.24
2019-02-10T12:27:29.679Z,989.25
2019-02-10T12:28:33.932Z,989.22
2019-02-10T12:29:38.102Z,989.15
2019-02-10T12:30:42.344Z,989.13
2019-02-10T12:31:46.562Z,989.09
2019-02-10T12:32:50.703Z,989.04
2019-02-10T12:33:54.891Z,989.02
2019-02-10T12:34:59.069Z,989.00
2019-02-10T12:36:03.349Z,988.99
2019-02-10T12:37:07.527Z,988.97
2019-02-10T12:38:11.698Z,988.91
2019-02-10T12:39:15.967Z,988.88
2019-02-10T12:40:20.100Z,988.88
2019-02-10T12:41:24.388Z,988.83
2019-02-10T12:42:28.460Z,988.81
2019-02-10T12:43:32.753Z,988.77
2019-02-10T12:44:36.966Z,988.74
2019-02-10T12:45:41.171Z,988.74
2019-02-10T12:46:45.404Z,988.73
2019-02-10T12:47:49.613Z,988.70
2019-02-10T12:48:53.757Z,988.67
2019-02-10T12:49:57.902Z,988.62
2019-02-10T12:51:02.102Z,988.62
2019-02-10T12:52:06.289Z,988.55
2019-02-10T12:53:10.596Z,988.53
2019-02-10T12:54:14.784Z,988.47
2019-02-10T12:55:18.973Z,988.44
2019-02-10T12:56:23.139Z,988.36
2019-02-10T12:57:27.325Z,988.35
2019-02-10T12:58:31.618Z,988.33
2019-02-10T12:59:35.748Z,988.30
2019-02-10T13:00:39.968Z,988.27
2019-02-10T13:01:44.113Z,988.25
2019-02-10T13:02:48.312Z,988.22
2019-02-10T13:03:52.598Z,988.20
2019-02-10T13:04:56.709Z,988.14
2019-02-10T13:06:00.981Z,988.15
2019-02-10T13:07:05.179Z,988.09
2019-02-10T13:08:09.221Z,988.04
2019-02-10T13:09:13.484Z,987.96
2019-02-10T13:10:18.436Z,987.96
2019-02-10T13:11:21.977Z,987.92